sensor_id;sensor_type;location;lat;lon;timestamp;pressure;altitude;pressure_sealevel;temperature;humidity
692;BME280;70475;50.084;8.576;2024-01-30T00:00:46;102078.88;;;-0.60;100.00
692;BME280;70475;50.084;8.576;2024-01-30T00:03:15;102084.25;;;-0.63;100.00
692;BME280;70475;50.084;8.576;2024-01-30T00:05:43;102087.19;;;-0.69;100.00
692;BME280;70475;50.084;8.576;2024-01-30T00:08:10;102084.34;;;-0.64;100.00
692;BME280;70475;50.084;8.576;2024-01-30T00:10:38;102089.09;;;-0.72;100.00
692;BME280;70475;50.084;8.576;2024-01-30T00:13:05;102084.03;;;-0.75;100.00
692;BME280;70475;50.084;8.576;2024-01-30T00:15:33;102084.09;;;-0.77;100.00
692;BME280;70475;50.084;8.576;2024-01-30T00:18:01;102078.88;;;-0.77;100.00
692;BME280;70475;50.084;8.576;2024-01-30T00:20:30;102087.94;;;-0.84;100.00
692;BME280;70475;50.084;8.576;2024-01-30T00:22:58;102089.50;;;-0.80;100.00
692;BME280;70475;50.084;8.576;2024-01-30T00:25:25;102086.56;;;-0.91;100.00
692;BME280;70475;50.084;8.576;2024-01-30T00:27:53;102091.50;;;-0.85;100.00
692;BME280;70475;50.084;8.576;2024-01-30T00:30:21;102076.66;;;-0.84;100.00
692;BME280;70475;50.084;8.576;2024-01-30T00:32:48;102081.25;;;-0.89;100.00
692;BME280;70475;50.084;8.576;2024-01-30T00:35:16;102086.97;;;-0.81;100.00
692;BME280;70475;50.084;8.576;2024-01-30T00:37:45;102088.09;;;-0.87;100.00
692;BME280;70475;50.084;8.576;2024-01-30T00:40:13;102089.19;;;-0.91;100.00
692;BME280;70475;50.084;8.576;2024-01-30T00:42:42;102076.03;;;-0.89;100.00
692;BME280;70475;50.084;8.576;2024-01-30T00:45:12;102085.94;;;-0.96;100.00
692;BME280;70475;50.084;8.576;2024-01-30T00:47:39;102087.00;;;-1.00;100.00
692;BME280;70475;50.084;8.576;2024-01-30T00:50:20;102080.03;;;-0.99;100.00
692;BME280;70475;50.084;8.576;2024-01-30T00:52:49;102085.34;;;-1.01;100.00
692;BME280;70475;50.084;8.576;2024-01-30T00:55:16;102089.09;;;-1.06;100.00
692;BME280;70475;50.084;8.576;2024-01-30T00:57:45;102089.84;;;-1.04;100.00
692;BME280;70475;50.084;8.576;2024-01-30T01:00:14;102095.44;;;-1.12;100.00
692;BME280;70475;50.084;8.576;2024-01-30T01:02:43;102095.22;;;-1.07;100.00
692;BME280;70475;50.084;8.576;2024-01-30T01:05:11;102100.59;;;-1.10;100.00
692;BME280;70475;50.084;8.576;2024-01-30T01:07:38;102104.84;;;-1.08;100.00
692;BME280;70475;50.084;8.576;2024-01-30T01:10:10;102103.69;;;-1.02;100.00
692;BME280;70475;50.084;8.576;2024-01-30T01:12:40;102107.63;;;-0.94;100.00
692;BME280;70475;50.084;8.576;2024-01-30T01:15:08;102102.09;;;-0.88;100.00
692;BME280;70475;50.084;8.576;2024-01-30T01:17:36;102098.03;;;-0.76;100.00
692;BME280;70475;50.084;8.576;2024-01-30T01:20:05;102095.88;;;-0.85;100.00
692;BME280;70475;50.084;8.576;2024-01-30T01:22:33;102097.94;;;-0.92;100.00
692;BME280;70475;50.084;8.576;2024-01-30T01:25:01;102096.53;;;-0.99;100.00
692;BME280;70475;50.084;8.576;2024-01-30T01:27:30;102099.72;;;-0.92;100.00
692;BME280;70475;50.084;8.576;2024-01-30T01:29:59;102094.94;;;-1.01;100.00
692;BME280;70475;50.084;8.576;2024-01-30T01:32:26;102097.75;;;-1.06;100.00
692;BME280;70475;50.084;8.576;2024-01-30T01:34:54;102090.94;;;-1.08;100.00
692;BME280;70475;50.084;8.576;2024-01-30T01:37:21;102095.00;;;-1.03;100.00
692;BME280;70475;50.084;8.576;2024-01-30T01:39:52;102086.22;;;-1.02;100.00
692;BME280;70475;50.084;8.576;2024-01-30T01:42:20;102089.69;;;-1.01;100.00
692;BME280;70475;50.084;8.576;2024-01-30T01:44:50;102080.94;;;-1.00;100.00
692;BME280;70475;50.084;8.576;2024-01-30T01:47:17;102089.63;;;-1.00;100.00
692;BME280;70475;50.084;8.576;2024-01-30T01:49:45;102087.47;;;-1.09;100.00
692;BME280;70475;50.084;8.576;2024-01-30T01:52:13;102080.06;;;-1.18;100.00
692;BME280;70475;50.084;8.576;2024-01-30T01:54:41;102075.97;;;-1.23;100.00
692;BME280;70475;50.084;8.576;2024-01-30T01:57:09;102074.00;;;-1.18;100.00
692;BME280;70475;50.084;8.576;2024-01-30T01:59:36;102082.06;;;-1.23;100.00
692;BME280;70475;50.084;8.576;2024-01-30T02:02:07;102078.44;;;-1.20;100.00
692;BME280;70475;50.084;8.576;2024-01-30T02:04:38;102073.44;;;-1.25;100.00
692;BME280;70475;50.084;8.576;2024-01-30T02:07:06;102071.53;;;-1.21;100.00
692;BME280;70475;50.084;8.576;2024-01-30T02:09:34;102067.44;;;-1.27;100.00
692;BME280;70475;50.084;8.576;2024-01-30T02:12:01;102073.75;;;-1.31;100.00
692;BME280;70475;50.084;8.576;2024-01-30T02:14:29;102069.44;;;-1.32;100.00
692;BME280;70475;50.084;8.576;2024-01-30T02:16:57;102076.50;;;-1.34;100.00
692;BME280;70475;50.084;8.576;2024-01-30T02:19:26;102069.59;;;-1.35;100.00
692;BME280;70475;50.084;8.576;2024-01-30T02:21:55;102065.38;;;-1.37;100.00
692;BME280;70475;50.084;8.576;2024-01-30T02:24:23;102067.19;;;-1.39;100.00
692;BME280;70475;50.084;8.576;2024-01-30T02:26:50;102066.34;;;-1.40;100.00
692;BME280;70475;50.084;8.576;2024-01-30T02:29:18;102068.88;;;-1.38;100.00
692;BME280;70475;50.084;8.576;2024-01-30T02:31:45;102067.56;;;-1.47;100.00
692;BME280;70475;50.084;8.576;2024-01-30T02:34:13;102073.28;;;-1.39;100.00
692;BME280;70475;50.084;8.576;2024-01-30T02:36:42;102069.88;;;-1.41;100.00
692;BME280;70475;50.084;8.576;2024-01-30T02:39:11;102071.78;;;-1.44;100.00
692;BME280;70475;50.084;8.576;2024-01-30T02:41:39;102069.38;;;-1.49;100.00
692;BME280;70475;50.084;8.576;2024-01-30T02:44:06;102072.50;;;-1.41;100.00
692;BME280;70475;50.084;8.576;2024-01-30T02:46:34;102074.75;;;-1.52;100.00
692;BME280;70475;50.084;8.576;2024-01-30T02:49:01;102073.84;;;-1.51;100.00
692;BME280;70475;50.084;8.576;2024-01-30T02:51:29;102063.34;;;-1.49;100.00
692;BME280;70475;50.084;8.576;2024-01-30T02:53:57;102068.91;;;-1.57;100.00
692;BME280;70475;50.084;8.576;2024-01-30T02:56:25;102075.59;;;-1.51;100.00
692;BME280;70475;50.084;8.576;2024-01-30T02:58:53;102072.44;;;-1.58;100.00
692;BME280;70475;50.084;8.576;2024-01-30T03:01:20;102069.97;;;-1.61;100.00
692;BME280;70475;50.084;8.576;2024-01-30T03:03:48;102063.19;;;-1.65;100.00
692;BME280;70475;50.084;8.576;2024-01-30T03:06:16;102063.91;;;-1.61;100.00
692;BME280;70475;50.084;8.576;2024-01-30T03:08:46;102064.38;;;-1.53;100.00
692;BME280;70475;50.084;8.576;2024-01-30T03:11:13;102056.78;;;-1.58;100.00
692;BME280;70475;50.084;8.576;2024-01-30T03:13:42;102062.28;;;-1.64;100.00
692;BME280;70475;50.084;8.576;2024-01-30T03:16:10;102053.53;;;-1.63;100.00
692;BME280;70475;50.084;8.576;2024-01-30T03:18:38;102058.75;;;-1.63;100.00
692;BME280;70475;50.084;8.576;2024-01-30T03:21:05;102056.28;;;-1.66;100.00
692;BME280;70475;50.084;8.576;2024-01-30T03:23:33;102057.44;;;-1.71;100.00
692;BME280;70475;50.084;8.576;2024-01-30T03:26:00;102061.44;;;-1.64;100.00
692;BME280;70475;50.084;8.576;2024-01-30T03:28:28;102062.44;;;-1.67;100.00
692;BME280;70475;50.084;8.576;2024-01-30T03:30:57;102061.00;;;-1.74;100.00
692;BME280;70475;50.084;8.576;2024-01-30T03:33:24;102060.72;;;-1.68;100.00
692;BME280;70475;50.084;8.576;2024-01-30T03:35:52;102062.72;;;-1.73;100.00
692;BME280;70475;50.084;8.576;2024-01-30T03:38:19;102066.09;;;-1.71;100.00
692;BME280;70475;50.084;8.576;2024-01-30T03:40:47;102062.00;;;-1.76;100.00
692;BME280;70475;50.084;8.576;2024-01-30T03:43:14;102067.50;;;-1.64;100.00
692;BME280;70475;50.084;8.576;2024-01-30T03:45:42;102066.94;;;-1.70;100.00
692;BME280;70475;50.084;8.576;2024-01-30T03:48:11;102061.22;;;-1.78;100.00
692;BME280;70475;50.084;8.576;2024-01-30T03:50:38;102063.59;;;-1.74;100.00
692;BME280;70475;50.084;8.576;2024-01-30T03:53:06;102064.41;;;-1.72;100.00
692;BME280;70475;50.084;8.576;2024-01-30T03:55:33;102070.88;;;-1.62;100.00
692;BME280;70475;50.084;8.576;2024-01-30T03:58:01;102065.66;;;-1.62;100.00
692;BME280;70475;50.084;8.576;2024-01-30T04:00:29;102060.94;;;-1.72;100.00
692;BME280;70475;50.084;8.576;2024-01-30T04:02:56;102063.69;;;-1.75;100.00
692;BME280;70475;50.084;8.576;2024-01-30T04:05:25;102057.63;;;-1.76;100.00
692;BME280;70475;50.084;8.576;2024-01-30T04:07:53;102045.47;;;-1.77;100.00
692;BME280;70475;50.084;8.576;2024-01-30T04:10:20;102056.84;;;-1.78;100.00
692;BME280;70475;50.084;8.576;2024-01-30T04:12:48;102060.84;;;-1.71;100.00
692;BME280;70475;50.084;8.576;2024-01-30T04:15:15;102067.94;;;-1.73;100.00
692;BME280;70475;50.084;8.576;2024-01-30T04:17:43;102071.16;;;-1.68;100.00
692;BME280;70475;50.084;8.576;2024-01-30T04:20:13;102061.13;;;-1.77;100.00
692;BME280;70475;50.084;8.576;2024-01-30T04:22:44;102056.91;;;-1.79;100.00
692;BME280;70475;50.084;8.576;2024-01-30T04:25:12;102053.75;;;-1.86;100.00
692;BME280;70475;50.084;8.576;2024-01-30T04:27:40;102051.56;;;-1.76;100.00
692;BME280;70475;50.084;8.576;2024-01-30T04:30:08;102055.91;;;-1.77;100.00
692;BME280;70475;50.084;8.576;2024-01-30T04:32:36;102058.06;;;-1.85;100.00
692;BME280;70475;50.084;8.576;2024-01-30T04:35:04;102049.56;;;-1.90;100.00
692;BME280;70475;50.084;8.576;2024-01-30T04:37:36;102057.84;;;-1.80;100.00
692;BME280;70475;50.084;8.576;2024-01-30T04:40:06;102052.41;;;-1.76;100.00
692;BME280;70475;50.084;8.576;2024-01-30T04:42:36;102056.22;;;-1.83;100.00
692;BME280;70475;50.084;8.576;2024-01-30T04:45:05;102064.31;;;-1.70;100.00
692;BME280;70475;50.084;8.576;2024-01-30T04:47:33;102059.47;;;-1.78;100.00
692;BME280;70475;50.084;8.576;2024-01-30T04:50:01;102061.31;;;-1.80;100.00
692;BME280;70475;50.084;8.576;2024-01-30T04:52:28;102064.97;;;-1.84;100.00
692;BME280;70475;50.084;8.576;2024-01-30T04:54:56;102062.84;;;-1.76;100.00
692;BME280;70475;50.084;8.576;2024-01-30T04:57:25;102061.94;;;-1.75;100.00
692;BME280;70475;50.084;8.576;2024-01-30T04:59:53;102064.00;;;-1.81;100.00
692;BME280;70475;50.084;8.576;2024-01-30T05:02:20;102063.28;;;-1.85;100.00
692;BME280;70475;50.084;8.576;2024-01-30T05:04:48;102071.25;;;-1.88;100.00
692;BME280;70475;50.084;8.576;2024-01-30T05:07:16;102071.38;;;-1.91;100.00
692;BME280;70475;50.084;8.576;2024-01-30T05:09:44;102080.75;;;-1.87;100.00
692;BME280;70475;50.084;8.576;2024-01-30T05:12:11;102072.84;;;-1.85;100.00
692;BME280;70475;50.084;8.576;2024-01-30T05:14:40;102080.91;;;-1.90;100.00
692;BME280;70475;50.084;8.576;2024-01-30T05:17:08;102069.78;;;-1.93;100.00
692;BME280;70475;50.084;8.576;2024-01-30T05:19:36;102081.75;;;-1.89;100.00
692;BME280;70475;50.084;8.576;2024-01-30T05:22:04;102076.75;;;-1.94;100.00
692;BME280;70475;50.084;8.576;2024-01-30T05:24:31;102082.09;;;-1.97;100.00
692;BME280;70475;50.084;8.576;2024-01-30T05:26:59;102079.50;;;-1.97;100.00
692;BME280;70475;50.084;8.576;2024-01-30T05:29:27;102080.41;;;-1.98;100.00
692;BME280;70475;50.084;8.576;2024-01-30T05:31:56;102082.88;;;-1.95;100.00
692;BME280;70475;50.084;8.576;2024-01-30T05:34:23;102075.94;;;-1.96;100.00
692;BME280;70475;50.084;8.576;2024-01-30T05:36:51;102077.00;;;-2.00;100.00
692;BME280;70475;50.084;8.576;2024-01-30T05:39:18;102080.34;;;-1.96;100.00
692;BME280;70475;50.084;8.576;2024-01-30T05:41:46;102076.81;;;-1.95;100.00
692;BME280;70475;50.084;8.576;2024-01-30T05:44:13;102078.34;;;-1.91;100.00
692;BME280;70475;50.084;8.576;2024-01-30T05:46:41;102079.50;;;-1.97;100.00
692;BME280;70475;50.084;8.576;2024-01-30T05:49:10;102082.63;;;-1.89;100.00
692;BME280;70475;50.084;8.576;2024-01-30T05:51:38;102095.88;;;-1.93;100.00
692;BME280;70475;50.084;8.576;2024-01-30T05:54:06;102081.69;;;-1.88;100.00
692;BME280;70475;50.084;8.576;2024-01-30T05:56:33;102085.44;;;-1.93;100.00
692;BME280;70475;50.084;8.576;2024-01-30T05:59:01;102086.66;;;-2.02;100.00
692;BME280;70475;50.084;8.576;2024-01-30T06:01:28;102087.66;;;-2.04;100.00
692;BME280;70475;50.084;8.576;2024-01-30T06:03:56;102089.00;;;-1.96;100.00
692;BME280;70475;50.084;8.576;2024-01-30T06:06:25;102089.28;;;-2.02;100.00
692;BME280;70475;50.084;8.576;2024-01-30T06:08:53;102094.34;;;-1.99;100.00
692;BME280;70475;50.084;8.576;2024-01-30T06:11:21;102097.09;;;-2.02;100.00
692;BME280;70475;50.084;8.576;2024-01-30T06:13:49;102086.66;;;-2.02;100.00
692;BME280;70475;50.084;8.576;2024-01-30T06:16:16;102095.16;;;-1.97;100.00
692;BME280;70475;50.084;8.576;2024-01-30T06:18:46;102092.59;;;-1.98;100.00
692;BME280;70475;50.084;8.576;2024-01-30T06:21:14;102082.09;;;-1.97;100.00
692;BME280;70475;50.084;8.576;2024-01-30T06:23:42;102084.06;;;-2.02;100.00
692;BME280;70475;50.084;8.576;2024-01-30T06:26:10;102086.91;;;-2.06;100.00
692;BME280;70475;50.084;8.576;2024-01-30T06:28:37;102087.53;;;-2.01;100.00
692;BME280;70475;50.084;8.576;2024-01-30T06:31:05;102095.63;;;-2.08;100.00
692;BME280;70475;50.084;8.576;2024-01-30T06:33:33;102085.47;;;-2.14;100.00
692;BME280;70475;50.084;8.576;2024-01-30T06:36:00;102085.47;;;-2.14;100.00
692;BME280;70475;50.084;8.576;2024-01-30T06:38:28;102086.97;;;-2.08;100.00
692;BME280;70475;50.084;8.576;2024-01-30T06:40:57;102091.41;;;-2.10;100.00
692;BME280;70475;50.084;8.576;2024-01-30T06:43:24;102091.53;;;-2.13;100.00
692;BME280;70475;50.084;8.576;2024-01-30T06:45:52;102087.16;;;-2.13;100.00
692;BME280;70475;50.084;8.576;2024-01-30T06:48:19;102084.50;;;-2.11;100.00
692;BME280;70475;50.084;8.576;2024-01-30T06:50:47;102091.53;;;-2.13;100.00
692;BME280;70475;50.084;8.576;2024-01-30T06:53:15;102089.84;;;-2.14;100.00
692;BME280;70475;50.084;8.576;2024-01-30T06:55:43;102102.16;;;-2.18;100.00
692;BME280;70475;50.084;8.576;2024-01-30T06:58:12;102098.38;;;-2.11;100.00
692;BME280;70475;50.084;8.576;2024-01-30T07:00:39;102098.44;;;-2.12;100.00
692;BME280;70475;50.084;8.576;2024-01-30T07:03:08;102095.06;;;-2.14;100.00
692;BME280;70475;50.084;8.576;2024-01-30T07:05:35;102091.53;;;-2.13;100.00
692;BME280;70475;50.084;8.576;2024-01-30T07:08:03;102102.75;;;-2.11;100.00
692;BME280;70475;50.084;8.576;2024-01-30T07:10:31;102094.00;;;-2.10;100.00
692;BME280;70475;50.084;8.576;2024-01-30T07:13:00;102091.34;;;-2.08;100.00
692;BME280;70475;50.084;8.576;2024-01-30T07:15:29;102092.25;;;-2.09;100.00
692;BME280;70475;50.084;8.576;2024-01-30T07:17:56;102098.16;;;-2.06;100.00
692;BME280;70475;50.084;8.576;2024-01-30T07:20:24;102094.72;;;-2.06;100.00
692;BME280;70475;50.084;8.576;2024-01-30T07:22:52;102093.94;;;-2.08;100.00
692;BME280;70475;50.084;8.576;2024-01-30T07:25:19;102089.56;;;-2.08;100.00
692;BME280;70475;50.084;8.576;2024-01-30T07:27:47;102092.81;;;-2.03;100.00
692;BME280;70475;50.084;8.576;2024-01-30T07:30:15;102091.81;;;-2.00;100.00
692;BME280;70475;50.084;8.576;2024-01-30T07:32:45;102096.06;;;-1.98;100.00
692;BME280;70475;50.084;8.576;2024-01-30T07:35:14;102105.59;;;-1.97;100.00
692;BME280;70475;50.084;8.576;2024-01-30T07:37:42;102100.81;;;-1.87;100.00
692;BME280;70475;50.084;8.576;2024-01-30T07:40:10;102102.16;;;-1.79;100.00
692;BME280;70475;50.084;8.576;2024-01-30T07:42:37;102103.84;;;-1.78;100.00
692;BME280;70475;50.084;8.576;2024-01-30T07:45:05;102098.63;;;-1.78;100.00
692;BME280;70475;50.084;8.576;2024-01-30T07:47:33;102096.50;;;-1.70;100.00
692;BME280;70475;50.084;8.576;2024-01-30T07:50:02;102099.66;;;-1.63;100.00
692;BME280;70475;50.084;8.576;2024-01-30T07:52:30;102093.41;;;-1.59;100.00
692;BME280;70475;50.084;8.576;2024-01-30T07:54:58;102099.19;;;-1.53;100.00
692;BME280;70475;50.084;8.576;2024-01-30T07:57:26;102099.25;;;-1.54;100.00
692;BME280;70475;50.084;8.576;2024-01-30T07:59:53;102099.09;;;-1.51;100.00
692;BME280;70475;50.084;8.576;2024-01-30T08:02:21;102099.97;;;-1.51;100.00
692;BME280;70475;50.084;8.576;2024-01-30T08:04:48;102099.53;;;-1.42;100.00
692;BME280;70475;50.084;8.576;2024-01-30T08:07:18;102103.63;;;-1.36;100.00
692;BME280;70475;50.084;8.576;2024-01-30T08:09:46;102118.16;;;-1.31;100.00
692;BME280;70475;50.084;8.576;2024-01-30T08:12:13;102120.25;;;-1.20;100.00
692;BME280;70475;50.084;8.576;2024-01-30T08:14:41;102116.88;;;-1.22;100.00
692;BME280;70475;50.084;8.576;2024-01-30T08:17:08;102120.81;;;-1.14;100.00
692;BME280;70475;50.084;8.576;2024-01-30T08:19:36;102130.28;;;-0.94;100.00
692;BME280;70475;50.084;8.576;2024-01-30T08:22:04;102130.56;;;-0.82;100.00
692;BME280;70475;50.084;8.576;2024-01-30T08:24:33;102132.88;;;-0.76;100.00
692;BME280;70475;50.084;8.576;2024-01-30T08:27:00;102127.50;;;-0.73;100.00
692;BME280;70475;50.084;8.576;2024-01-30T08:29:28;102125.88;;;-0.58;100.00
692;BME280;70475;50.084;8.576;2024-01-30T08:31:56;102117.50;;;-0.48;100.00
692;BME280;70475;50.084;8.576;2024-01-30T08:34:25;102120.88;;;-0.46;100.00
692;BME280;70475;50.084;8.576;2024-01-30T08:36:53;102125.31;;;-0.31;100.00
692;BME280;70475;50.084;8.576;2024-01-30T08:39:21;102120.09;;;-0.14;100.00
692;BME280;70475;50.084;8.576;2024-01-30T08:41:50;102117.47;;;-0.14;100.00
692;BME280;70475;50.084;8.576;2024-01-30T08:44:18;102113.88;;;0.04;100.00
692;BME280;70475;50.084;8.576;2024-01-30T08:46:45;102117.41;;;0.21;100.00
692;BME280;70475;50.084;8.576;2024-01-30T08:49:13;102113.44;;;0.45;100.00
692;BME280;70475;50.084;8.576;2024-01-30T08:51:41;102119.28;;;0.50;100.00
692;BME280;70475;50.084;8.576;2024-01-30T08:54:08;102122.75;;;0.66;100.00
692;BME280;70475;50.084;8.576;2024-01-30T08:56:36;102127.06;;;0.51;100.00
692;BME280;70475;50.084;8.576;2024-01-30T08:59:05;102122.81;;;0.64;100.00
692;BME280;70475;50.084;8.576;2024-01-30T09:01:33;102120.81;;;0.69;100.00
692;BME280;70475;50.084;8.576;2024-01-30T09:04:00;102125.50;;;0.78;100.00
692;BME280;70475;50.084;8.576;2024-01-30T09:06:29;102109.19;;;0.89;100.00
692;BME280;70475;50.084;8.576;2024-01-30T09:08:56;102111.63;;;1.07;100.00
692;BME280;70475;50.084;8.576;2024-01-30T09:11:24;102106.66;;;1.03;100.00
692;BME280;70475;50.084;8.576;2024-01-30T09:13:52;102113.91;;;1.13;100.00
692;BME280;70475;50.084;8.576;2024-01-30T09:16:21;102124.97;;;1.18;100.00
692;BME280;70475;50.084;8.576;2024-01-30T09:18:48;102120.84;;;1.14;100.00
692;BME280;70475;50.084;8.576;2024-01-30T09:21:16;102132.41;;;1.26;100.00
692;BME280;70475;50.084;8.576;2024-01-30T09:23:44;102131.28;;;1.30;100.00
692;BME280;70475;50.084;8.576;2024-01-30T09:26:11;102132.31;;;1.57;100.00
692;BME280;70475;50.084;8.576;2024-01-30T09:28:39;102137.25;;;1.77;100.00
692;BME280;70475;50.084;8.576;2024-01-30T09:31:09;102133.22;;;1.99;100.00
692;BME280;70475;50.084;8.576;2024-01-30T09:33:38;102136.59;;;2.15;100.00
692;BME280;70475;50.084;8.576;2024-01-30T09:36:07;102130.16;;;2.21;100.00
692;BME280;70475;50.084;8.576;2024-01-30T09:38:35;102126.66;;;2.35;100.00
692;BME280;70475;50.084;8.576;2024-01-30T09:41:08;102128.06;;;2.26;100.00
692;BME280;70475;50.084;8.576;2024-01-30T09:43:37;102132.09;;;2.46;100.00
692;BME280;70475;50.084;8.576;2024-01-30T09:46:05;102133.19;;;2.70;100.00
692;BME280;70475;50.084;8.576;2024-01-30T09:48:35;102124.63;;;2.80;100.00
692;BME280;70475;50.084;8.576;2024-01-30T09:51:05;102135.50;;;2.88;100.00
692;BME280;70475;50.084;8.576;2024-01-30T09:53:32;102126.41;;;3.06;100.00
692;BME280;70475;50.084;8.576;2024-01-30T09:56:01;102125.75;;;3.03;100.00
692;BME280;70475;50.084;8.576;2024-01-30T09:58:29;102137.44;;;3.25;100.00
692;BME280;70475;50.084;8.576;2024-01-30T10:00:57;102128.53;;;3.40;100.00
692;BME280;70475;50.084;8.576;2024-01-30T10:03:25;102132.84;;;3.41;100.00
692;BME280;70475;50.084;8.576;2024-01-30T10:05:54;102131.78;;;3.31;100.00
692;BME280;70475;50.084;8.576;2024-01-30T10:08:23;102136.75;;;3.48;100.00
692;BME280;70475;50.084;8.576;2024-01-30T10:10:51;102130.88;;;3.45;100.00
692;BME280;70475;50.084;8.576;2024-01-30T10:13:19;102126.16;;;3.62;100.00
692;BME280;70475;50.084;8.576;2024-01-30T10:15:47;102135.31;;;3.69;100.00
692;BME280;70475;50.084;8.576;2024-01-30T10:18:14;102121.75;;;3.75;100.00
692;BME280;70475;50.084;8.576;2024-01-30T10:20:42;102124.47;;;3.86;100.00
692;BME280;70475;50.084;8.576;2024-01-30T10:23:10;102125.13;;;3.77;100.00
692;BME280;70475;50.084;8.576;2024-01-30T10:25:40;102131.66;;;3.97;100.00
692;BME280;70475;50.084;8.576;2024-01-30T10:28:08;102117.44;;;3.99;100.00
692;BME280;70475;50.084;8.576;2024-01-30T10:30:35;102114.16;;;4.08;100.00
692;BME280;70475;50.084;8.576;2024-01-30T10:33:03;102112.38;;;3.96;100.00
692;BME280;70475;50.084;8.576;2024-01-30T10:35:31;102115.84;;;3.84;100.00
692;BME280;70475;50.084;8.576;2024-01-30T10:38:00;102112.38;;;3.96;100.00
692;BME280;70475;50.084;8.576;2024-01-30T10:40:28;102107.63;;;4.14;100.00
692;BME280;70475;50.084;8.576;2024-01-30T10:43:01;102119.66;;;4.05;100.00
692;BME280;70475;50.084;8.576;2024-01-30T10:45:31;102112.25;;;4.23;100.00
692;BME280;70475;50.084;8.576;2024-01-30T10:47:59;102108.22;;;4.30;100.00
692;BME280;70475;50.084;8.576;2024-01-30T10:50:27;102106.72;;;4.39;100.00
692;BME280;70475;50.084;8.576;2024-01-30T10:52:57;102107.75;;;4.49;100.00
692;BME280;70475;50.084;8.576;2024-01-30T10:55:28;102108.88;;;4.70;100.00
692;BME280;70475;50.084;8.576;2024-01-30T10:57:58;102115.38;;;4.77;100.00
692;BME280;70475;50.084;8.576;2024-01-30T11:00:27;102119.28;;;4.84;100.00
692;BME280;70475;50.084;8.576;2024-01-30T11:02:55;102112.16;;;4.97;100.00
692;BME280;70475;50.084;8.576;2024-01-30T11:05:27;102115.41;;;5.00;100.00
692;BME280;70475;50.084;8.576;2024-01-30T11:07:59;102121.19;;;5.05;100.00
692;BME280;70475;50.084;8.576;2024-01-30T11:10:44;102116.06;;;5.15;100.00
692;BME280;70475;50.084;8.576;2024-01-30T11:13:14;102113.19;;;5.18;100.00
692;BME280;70475;50.084;8.576;2024-01-30T11:15:42;102116.81;;;5.17;100.00
692;BME280;70475;50.084;8.576;2024-01-30T11:18:10;102110.53;;;5.41;100.00
692;BME280;70475;50.084;8.576;2024-01-30T11:20:37;102112.59;;;5.49;100.00
692;BME280;70475;50.084;8.576;2024-01-30T11:23:11;102109.41;;;5.91;100.00
692;BME280;70475;50.084;8.576;2024-01-30T11:25:39;102106.38;;;5.84;100.00
692;BME280;70475;50.084;8.576;2024-01-30T11:28:14;102098.97;;;5.66;100.00
692;BME280;70475;50.084;8.576;2024-01-30T11:30:42;102098.59;;;5.94;100.00
692;BME280;70475;50.084;8.576;2024-01-30T11:33:11;102093.78;;;5.88;100.00
692;BME280;70475;50.084;8.576;2024-01-30T11:35:40;102097.41;;;6.31;100.00
692;BME280;70475;50.084;8.576;2024-01-30T11:38:10;102101.22;;;6.27;100.00
692;BME280;70475;50.084;8.576;2024-01-30T11:40:38;102089.56;;;6.52;100.00
692;BME280;70475;50.084;8.576;2024-01-30T11:43:07;102090.88;;;6.46;100.00
692;BME280;70475;50.084;8.576;2024-01-30T11:45:37;102083.19;;;6.65;100.00
692;BME280;70475;50.084;8.576;2024-01-30T11:48:06;102077.59;;;6.79;100.00
692;BME280;70475;50.084;8.576;2024-01-30T11:50:37;102073.66;;;6.63;100.00
692;BME280;70475;50.084;8.576;2024-01-30T11:53:05;102065.81;;;6.72;100.00
692;BME280;70475;50.084;8.576;2024-01-30T11:55:33;102067.41;;;6.64;100.00
692;BME280;70475;50.084;8.576;2024-01-30T11:58:03;102068.72;;;6.69;100.00
692;BME280;70475;50.084;8.576;2024-01-30T12:00:31;102070.03;;;6.75;100.00
692;BME280;70475;50.084;8.576;2024-01-30T12:03:01;102070.13;;;6.84;100.00
692;BME280;70475;50.084;8.576;2024-01-30T12:05:30;102063.56;;;6.99;100.00
692;BME280;70475;50.084;8.576;2024-01-30T12:07:58;102075.50;;;6.94;100.00
692;BME280;70475;50.084;8.576;2024-01-30T12:10:28;102076.06;;;6.66;100.00
692;BME280;70475;50.084;8.576;2024-01-30T12:12:56;102077.94;;;6.86;100.00
692;BME280;70475;50.084;8.576;2024-01-30T12:15:25;102065.56;;;6.75;100.00
692;BME280;70475;50.084;8.576;2024-01-30T12:18:05;102064.34;;;6.90;100.00
692;BME280;70475;50.084;8.576;2024-01-30T12:20:34;102053.63;;;6.92;100.00
692;BME280;70475;50.084;8.576;2024-01-30T12:23:02;102060.50;;;7.15;100.00
692;BME280;70475;50.084;8.576;2024-01-30T12:25:29;102061.88;;;7.30;100.00
692;BME280;70475;50.084;8.576;2024-01-30T12:27:58;102050.38;;;6.88;100.00
692;BME280;70475;50.084;8.576;2024-01-30T12:30:25;102058.72;;;7.04;100.00
692;BME280;70475;50.084;8.576;2024-01-30T12:32:55;102049.56;;;7.08;100.00
692;BME280;70475;50.084;8.576;2024-01-30T12:35:25;102051.44;;;7.17;100.00
692;BME280;70475;50.084;8.576;2024-01-30T12:37:58;102054.09;;;7.17;100.00
692;BME280;70475;50.084;8.576;2024-01-30T12:40:26;102048.00;;;7.37;100.00
692;BME280;70475;50.084;8.576;2024-01-30T12:42:53;102049.19;;;7.54;100.00
692;BME280;70475;50.084;8.576;2024-01-30T12:45:21;102041.63;;;7.49;100.00
692;BME280;70475;50.084;8.576;2024-01-30T12:47:50;102050.81;;;7.25;100.00
692;BME280;70475;50.084;8.576;2024-01-30T12:50:18;102038.59;;;7.54;100.00
692;BME280;70475;50.084;8.576;2024-01-30T12:52:48;102053.97;;;7.60;100.00
692;BME280;70475;50.084;8.576;2024-01-30T12:55:16;102046.16;;;7.58;100.00
692;BME280;70475;50.084;8.576;2024-01-30T12:57:44;102045.34;;;7.37;100.00
692;BME280;70475;50.084;8.576;2024-01-30T13:00:12;102049.41;;;7.41;100.00
692;BME280;70475;50.084;8.576;2024-01-30T13:02:40;102038.66;;;7.63;100.00
692;BME280;70475;50.084;8.576;2024-01-30T13:05:09;102034.19;;;7.84;100.00
692;BME280;70475;50.084;8.576;2024-01-30T13:07:37;102027.91;;;7.85;100.00
692;BME280;70475;50.084;8.576;2024-01-30T13:10:06;102017.19;;;7.66;100.00